createdAt,value
2018-04-30T00:00:17.060Z,50.97
2018-04-30T00:02:45.439Z,50.81
2018-04-30T00:05:17.020Z,50.68
2018-04-30T00:07:45.394Z,50.36
2018-04-30T00:10:13.766Z,50.26
2018-04-30T00:12:42.150Z,50.29
2018-04-30T00:15:16.223Z,50.01
2018-04-30T00:17:44.609Z,49.30
2018-04-30T00:20:17.663Z,49.45
2018-04-30T00:22:46.061Z,49.62
2018-04-30T00:25:16.364Z,49.53
2018-04-30T00:27:44.802Z,49.85
2018-04-30T00:30:17.059Z,49.79
2018-04-30T00:32:45.484Z,49.64
2018-04-30T00:35:15.446Z,49.77
2018-04-30T00:37:43.831Z,49.73
2018-04-30T00:40:16.176Z,50.04
2018-04-30T00:42:44.680Z,50.31
2018-04-30T00:45:15.062Z,50.55
2018-04-30T00:47:43.481Z,50.76
2018-04-30T00:50:16.881Z,51.17
2018-04-30T00:52:45.497Z,51.08
2018-04-30T00:55:17.789Z,50.97
2018-04-30T00:57:46.157Z,51.01
2018-04-30T01:00:17.325Z,50.85
2018-04-30T01:02:45.689Z,50.68
2018-04-30T01:05:15.924Z,50.74
2018-04-30T01:07:44.360Z,50.77
2018-04-30T01:10:16.667Z,50.83
2018-04-30T01:12:45.801Z,50.75
2018-04-30T01:15:18.134Z,50.60
2018-04-30T01:17:46.526Z,50.28
2018-04-30T01:20:16.033Z,50.07
2018-04-30T01:22:45.006Z,49.99
2018-04-30T01:25:15.576Z,50.01
2018-04-30T01:27:43.973Z,50.02
2018-04-30T01:30:17.153Z,49.92
2018-04-30T01:32:45.524Z,50.00
2018-04-30T01:35:16.445Z,50.13
2018-04-30T01:37:44.946Z,50.48
2018-04-30T01:40:13.521Z,50.58
2018-04-30T01:42:41.918Z,50.90
2018-04-30T01:45:20.497Z,51.13
2018-04-30T01:47:48.859Z,51.14
2018-04-30T01:50:17.236Z,51.12
2018-04-30T01:52:45.617Z,51.36
2018-04-30T01:55:17.133Z,51.35
2018-04-30T01:57:45.544Z,51.48
2018-04-30T02:00:14.770Z,51.41
2018-04-30T02:02:42.937Z,51.39
2018-04-30T02:05:13.646Z,51.50
2018-04-30T02:07:42.031Z,51.63
2018-04-30T02:10:17.374Z,51.70
2018-04-30T02:12:45.753Z,51.51
2018-04-30T02:15:16.630Z,51.71
2018-04-30T02:17:45.045Z,52.19
2018-04-30T02:20:16.659Z,52.47
2018-04-30T02:22:45.050Z,52.98
2018-04-30T02:25:16.418Z,53.37
2018-04-30T02:27:44.795Z,53.28
2018-04-30T02:30:16.139Z,53.57
2018-04-30T02:32:45.130Z,53.58
2018-04-30T02:35:14.710Z,53.48
2018-04-30T02:37:43.083Z,53.48
2018-04-30T02:40:16.563Z,53.26
2018-04-30T02:42:45.010Z,53.31
2018-04-30T02:45:16.890Z,53.42
2018-04-30T02:47:45.332Z,53.16
2018-04-30T02:50:15.423Z,52.36
2018-04-30T02:52:43.800Z,52.51
2018-04-30T02:55:16.189Z,52.62
2018-04-30T02:57:44.587Z,52.74
2018-04-30T03:00:16.683Z,52.61
2018-04-30T03:02:45.077Z,52.65
2018-04-30T03:05:13.438Z,52.75
2018-04-30T03:07:41.819Z,52.60
2018-04-30T03:10:16.755Z,52.61
2018-04-30T03:12:45.143Z,52.93
2018-04-30T03:15:16.725Z,52.65
2018-04-30T03:17:45.132Z,53.31
2018-04-30T03:20:15.650Z,53.64
2018-04-30T03:22:44.505Z,53.99
2018-04-30T03:25:16.420Z,53.90
2018-04-30T03:27:44.799Z,53.66
2018-04-30T03:30:15.921Z,53.71
2018-04-30T03:32:44.367Z,53.66
2018-04-30T03:35:16.092Z,53.59
2018-04-30T03:37:44.475Z,53.81
2018-04-30T03:40:16.641Z,54.10
2018-04-30T03:42:45.510Z,54.33
2018-04-30T03:45:17.903Z,54.62
2018-04-30T03:47:46.280Z,54.04
2018-04-30T03:50:14.681Z,53.77
2018-04-30T03:52:43.098Z,53.83
2018-04-30T03:55:15.621Z,53.20
2018-04-30T03:57:43.995Z,52.90
2018-04-30T04:03:32.979Z,52.60
2018-04-30T04:06:02.600Z,52.44
2018-04-30T04:08:30.972Z,52.37
2018-04-30T04:10:59.341Z,52.42
2018-04-30T04:13:27.729Z,52.40
2018-04-30T04:15:56.121Z,52.31
2018-04-30T04:18:24.824Z,52.32
2018-04-30T04:20:53.185Z,51.97
2018-04-30T04:23:21.582Z,52.09
2018-04-30T04:25:49.961Z,51.73
2018-04-30T04:28:18.336Z,51.48
2018-04-30T04:30:46.748Z,51.05
2018-04-30T04:33:15.118Z,50.93
2018-04-30T04:35:43.493Z,50.83
2018-04-30T04:38:11.888Z,50.39
2018-04-30T04:40:40.259Z,49.76
2018-04-30T04:43:08.670Z,50.03
2018-04-30T04:45:37.093Z,49.83
2018-04-30T04:48:05.458Z,49.96
2018-04-30T04:50:33.832Z,50.15
2018-04-30T04:53:02.218Z,49.85
2018-04-30T04:55:30.598Z,49.97
2018-04-30T04:57:58.982Z,50.19
2018-04-30T05:00:27.376Z,49.97
2018-04-30T05:02:55.760Z,50.10
2018-04-30T05:05:24.137Z,49.78
2018-04-30T05:07:52.516Z,49.28
2018-04-30T05:10:20.897Z,49.17
2018-04-30T05:12:49.273Z,48.51
2018-04-30T05:15:17.652Z,48.57
2018-04-30T05:17:46.102Z,48.19
2018-04-30T05:20:17.437Z,48.27
2018-04-30T05:22:45.817Z,48.10
2018-04-30T05:25:16.674Z,47.44
2018-04-30T05:27:45.061Z,47.30
2018-04-30T05:30:17.118Z,47.03
2018-04-30T05:32:46.251Z,47.50
2018-04-30T05:35:15.413Z,47.70
2018-04-30T05:37:43.858Z,47.87
2018-04-30T05:40:12.261Z,48.15
2018-04-30T05:42:40.646Z,47.94
2018-04-30T05:45:16.675Z,48.26
2018-04-30T05:47:45.070Z,48.22
2018-04-30T05:50:16.627Z,48.02
2018-04-30T05:52:45.160Z,48.33
2018-04-30T05:55:13.330Z,48.36
2018-04-30T05:57:41.876Z,48.14
2018-04-30T06:00:14.929Z,47.91
2018-04-30T06:02:43.380Z,48.21
2018-04-30T06:05:16.654Z,48.38
2018-04-30T06:07:45.018Z,48.41
2018-04-30T06:10:17.719Z,48.44
2018-04-30T06:12:46.114Z,48.54
2018-04-30T06:15:17.052Z,48.00
2018-04-30T06:17:45.543Z,47.52
2018-04-30T06:20:19.489Z,47.54
2018-04-30T06:22:47.857Z,47.39
2018-04-30T06:25:16.775Z,47.02
2018-04-30T06:27:45.228Z,47.29
2018-04-30T06:30:17.033Z,47.21
2018-04-30T06:32:45.565Z,46.68
2018-04-30T06:35:16.117Z,46.97
2018-04-30T06:37:44.494Z,47.05
2018-04-30T06:40:13.321Z,46.41
2018-04-30T06:42:41.718Z,45.94
2018-04-30T06:45:13.500Z,45.96
2018-04-30T06:47:41.905Z,45.61
2018-04-30T06:50:10.322Z,45.83
2018-04-30T06:52:38.744Z,44.97
2018-04-30T06:55:15.423Z,44.35
2018-04-30T06:57:43.839Z,44.35
2018-04-30T07:00:15.309Z,44.11
2018-04-30T07:02:43.881Z,43.33
2018-04-30T07:05:16.034Z,43.18
2018-04-30T07:07:44.411Z,42.64
2018-04-30T07:10:12.853Z,42.48
2018-04-30T07:12:41.222Z,42.36
2018-04-30T07:15:09.857Z,42.28
2018-04-30T07:17:38.233Z,41.70
2018-04-30T07:20:13.948Z,41.04
2018-04-30T07:22:42.331Z,40.82
2018-04-30T07:25:16.612Z,40.40
2018-04-30T07:27:45.102Z,40.22
2018-04-30T07:30:16.153Z,40.32
2018-04-30T07:32:45.324Z,39.39
2018-04-30T07:35:16.744Z,39.88
2018-04-30T07:37:45.117Z,40.15
2018-04-30T07:40:16.704Z,39.42
2018-04-30T07:42:45.113Z,39.43
2018-04-30T07:45:16.701Z,39.28
2018-04-30T07:47:45.089Z,38.98
2018-04-30T07:50:15.154Z,37.55
2018-04-30T07:52:43.553Z,36.27
2018-04-30T07:55:15.284Z,36.46
2018-04-30T07:57:43.686Z,35.71
2018-04-30T08:00:11.740Z,35.23
2018-04-30T08:02:40.251Z,36.01
2018-04-30T08:05:16.809Z,36.60
2018-04-30T08:07:45.188Z,36.70
2018-04-30T08:10:16.626Z,36.26
2018-04-30T08:12:45.774Z,36.69
2018-04-30T08:15:16.265Z,36.87
2018-04-30T08:17:44.651Z,36.68
2018-04-30T08:20:16.278Z,36.56
2018-04-30T08:22:45.381Z,36.54
2018-04-30T08:25:16.436Z,37.12
2018-04-30T08:27:44.814Z,36.98
2018-04-30T08:30:15.786Z,36.70
2018-04-30T08:32:44.478Z,36.49
2018-04-30T08:35:12.878Z,35.80
2018-04-30T08:37:41.253Z,35.96
2018-04-30T08:40:14.384Z,35.69
2018-04-30T08:42:42.780Z,35.73
2018-04-30T08:45:17.491Z,35.85
2018-04-30T08:47:45.891Z,36.30
2018-04-30T08:50:16.202Z,36.04
2018-04-30T08:52:45.525Z,36.04
2018-04-30T08:55:13.899Z,36.34
2018-04-30T08:57:42.325Z,36.21
2018-04-30T09:00:14.015Z,36.46
2018-04-30T09:02:42.513Z,36.11
2018-04-30T09:05:15.373Z,35.68
2018-04-30T09:07:43.749Z,34.95
2018-04-30T09:10:12.165Z,34.94
2018-04-30T09:12:40.533Z,34.10
2018-04-30T09:15:08.921Z,33.04
2018-04-30T09:17:37.293Z,33.20
2018-04-30T09:22:39.679Z,33.08
2018-04-30T09:25:16.170Z,33.04
2018-04-30T09:27:44.560Z,33.69
2018-04-30T09:30:16.425Z,33.31
2018-04-30T09:32:44.857Z,33.50
2018-04-30T09:35:13.738Z,33.57
2018-04-30T09:37:42.143Z,32.75
2018-04-30T09:40:15.137Z,33.02
2018-04-30T09:42:43.541Z,32.76
2018-04-30T09:45:15.250Z,31.87
2018-04-30T09:47:43.633Z,31.66
2018-04-30T09:50:15.414Z,31.22
2018-04-30T09:52:43.820Z,31.68
2018-04-30T09:55:15.228Z,31.50
2018-04-30T09:57:43.691Z,31.24
2018-04-30T10:00:16.773Z,30.37
2018-04-30T10:02:45.228Z,30.18
2018-04-30T10:05:16.323Z,28.99
2018-04-30T10:07:44.705Z,28.39
2018-04-30T10:10:13.103Z,28.27
2018-04-30T10:12:41.481Z,28.47
2018-04-30T10:15:15.871Z,28.92
2018-04-30T10:17:44.105Z,27.61
2018-04-30T10:20:16.645Z,25.40
2018-04-30T10:22:45.044Z,26.38
2018-04-30T10:25:16.776Z,25.97
2018-04-30T10:27:45.151Z,26.26
2018-04-30T10:30:15.562Z,26.32
2018-04-30T10:32:44.954Z,26.22
2018-04-30T10:35:15.182Z,26.24
2018-04-30T10:37:43.565Z,26.00
2018-04-30T10:40:12.126Z,26.35
2018-04-30T10:42:40.553Z,26.36
2018-04-30T10:45:13.529Z,26.80
2018-04-30T10:47:41.984Z,26.93
2018-04-30T10:50:17.127Z,26.86
2018-04-30T10:52:45.521Z,27.08
2018-04-30T10:55:17.369Z,26.20
2018-04-30T10:57:45.734Z,26.22
2018-04-30T11:00:14.301Z,25.71
2018-04-30T11:02:42.777Z,26.59
2018-04-30T11:05:18.293Z,27.02
2018-04-30T11:07:46.810Z,26.89
2018-04-30T11:10:17.406Z,27.10
2018-04-30T11:12:45.800Z,27.05
2018-04-30T11:15:16.511Z,27.32
2018-04-30T11:17:44.885Z,26.46
2018-04-30T11:20:15.764Z,26.69
2018-04-30T11:22:44.233Z,26.25
2018-04-30T11:25:16.233Z,26.50
2018-04-30T11:27:44.671Z,29.20
2018-04-30T11:30:15.153Z,30.59
2018-04-30T11:32:43.313Z,33.69
2018-04-30T11:35:11.876Z,34.46
2018-04-30T11:37:40.457Z,35.18
2018-04-30T11:40:15.421Z,35.19
2018-04-30T11:42:43.801Z,35.52
2018-04-30T11:45:18.004Z,36.39
2018-04-30T11:47:46.589Z,36.65
2018-04-30T11:50:16.575Z,36.70
2018-04-30T11:52:44.954Z,37.31
2018-04-30T11:55:14.868Z,37.21
2018-04-30T11:57:43.426Z,37.13
2018-04-30T12:00:15.694Z,36.59
2018-04-30T12:02:44.383Z,36.33
2018-04-30T12:05:16.964Z,35.83
2018-04-30T12:07:45.357Z,36.03
2018-04-30T12:10:16.192Z,35.33
2018-04-30T12:12:45.114Z,35.40
2018-04-30T12:15:16.922Z,35.10
2018-04-30T12:17:45.514Z,34.16
2018-04-30T12:20:16.845Z,34.13
2018-04-30T12:22:46.175Z,33.70
2018-04-30T12:25:17.173Z,33.92
2018-04-30T12:27:45.567Z,34.39
2018-04-30T12:30:16.378Z,33.54
2018-04-30T12:32:45.518Z,33.54
2018-04-30T12:35:15.937Z,33.15
2018-04-30T12:37:44.497Z,33.86
2018-04-30T12:40:17.481Z,33.37
2018-04-30T12:42:46.896Z,33.15
2018-04-30T12:45:16.645Z,32.52
2018-04-30T12:47:45.032Z,31.68
2018-04-30T12:50:16.709Z,31.82
2018-04-30T12:52:45.275Z,30.71
2018-04-30T12:55:17.269Z,30.20
2018-04-30T12:57:45.839Z,29.43
2018-04-30T13:00:17.258Z,28.59
2018-04-30T13:02:46.161Z,27.50
2018-04-30T13:05:18.348Z,27.76
2018-04-30T13:07:46.917Z,26.68
2018-04-30T13:10:17.292Z,26.28
2018-04-30T13:12:45.674Z,26.11
2018-04-30T13:15:14.703Z,24.08
2018-04-30T13:17:43.285Z,24.34
2018-04-30T13:20:15.972Z,23.23
2018-04-30T13:22:44.397Z,23.03
2018-04-30T13:25:12.786Z,22.93
2018-04-30T13:27:41.181Z,21.04
2018-04-30T13:30:10.185Z,21.07
2018-04-30T13:32:38.555Z,21.37
2018-04-30T13:35:10.167Z,21.02
2018-04-30T13:37:38.551Z,21.15
2018-04-30T13:40:11.941Z,20.01
2018-04-30T13:42:40.369Z,20.94
2018-04-30T13:45:09.845Z,21.88
2018-04-30T13:47:38.228Z,22.93
2018-04-30T13:50:11.949Z,23.38
2018-04-30T13:52:40.325Z,24.20
2018-04-30T13:55:11.357Z,23.67
2018-04-30T13:57:39.910Z,23.61
2018-04-30T14:00:08.569Z,23.54
2018-04-30T14:02:36.949Z,23.93
2018-04-30T14:05:05.105Z,24.00
2018-04-30T14:07:33.569Z,24.77
2018-04-30T14:10:01.949Z,24.23
2018-04-30T14:12:31.084Z,24.46
2018-04-30T14:14:59.932Z,24.69
2018-04-30T14:17:28.376Z,24.24
2018-04-30T14:19:56.755Z,24.06
2018-04-30T14:22:25.126Z,24.24
2018-04-30T14:24:53.536Z,25.12
2018-04-30T14:27:21.939Z,25.04
2018-04-30T14:29:50.364Z,25.19
2018-04-30T14:32:18.739Z,25.23
2018-04-30T14:34:47.118Z,25.59
2018-04-30T14:37:15.500Z,25.53
2018-04-30T14:39:43.871Z,25.62
2018-04-30T14:42:11.694Z,25.49
2018-04-30T14:44:40.083Z,25.30
2018-04-30T14:47:08.700Z,25.28
2018-04-30T14:49:37.080Z,25.38
2018-04-30T14:52:05.433Z,25.79
2018-04-30T14:54:34.683Z,25.45
2018-04-30T14:57:03.142Z,25.51
2018-04-30T14:59:31.534Z,25.43
2018-04-30T15:01:59.932Z,25.57
2018-04-30T15:04:28.314Z,25.55
2018-04-30T15:06:56.934Z,25.37
2018-04-30T15:09:25.378Z,25.01
2018-04-30T15:11:53.421Z,25.42
2018-04-30T15:14:21.801Z,25.32
2018-04-30T15:16:50.408Z,25.16
2018-04-30T15:19:18.785Z,25.25
2018-04-30T15:21:47.182Z,25.13
2018-04-30T15:24:15.578Z,25.41
2018-04-30T15:26:43.996Z,25.49
2018-04-30T15:29:12.377Z,25.01
2018-04-30T15:31:40.781Z,25.17
2018-04-30T15:34:09.815Z,25.41
2018-04-30T15:36:38.268Z,25.65
2018-04-30T15:39:06.367Z,25.43
2018-04-30T15:41:34.780Z,25.42
2018-04-30T15:44:03.887Z,25.46
2018-04-30T15:46:32.275Z,25.54
2018-04-30T15:49:00.654Z,25.35
2018-04-30T15:51:29.097Z,25.45
2018-04-30T15:53:57.480Z,25.28
2018-04-30T15:56:26.381Z,25.52
2018-04-30T15:58:54.756Z,25.55
2018-04-30T16:01:23.190Z,25.77
2018-04-30T16:03:51.751Z,25.78
2018-04-30T16:06:20.128Z,25.29
2018-04-30T16:08:48.508Z,25.43
2018-04-30T16:11:16.910Z,25.28
2018-04-30T16:13:45.293Z,25.17
2018-04-30T16:16:13.667Z,25.39
2018-04-30T16:18:42.057Z,25.28
2018-04-30T16:21:10.464Z,25.38
2018-04-30T16:23:38.585Z,25.68
2018-04-30T16:26:06.957Z,25.83
2018-04-30T16:28:35.003Z,25.84
2018-04-30T16:31:03.397Z,25.92
2018-04-30T16:33:31.797Z,25.76
2018-04-30T16:36:01.207Z,25.96
2018-04-30T16:38:29.729Z,26.10
2018-04-30T16:40:57.875Z,26.03
2018-04-30T16:43:26.260Z,26.06
2018-04-30T16:45:54.662Z,26.09
2018-04-30T16:48:23.030Z,26.43
2018-04-30T16:50:51.394Z,26.58
2018-04-30T16:53:19.787Z,26.64
2018-04-30T16:55:48.173Z,26.83
2018-04-30T16:58:16.551Z,26.83
2018-04-30T17:00:44.944Z,26.79
2018-04-30T17:03:13.324Z,26.67
2018-04-30T17:05:41.694Z,26.92
2018-04-30T17:08:10.062Z,27.05
2018-04-30T17:10:39.766Z,27.07
2018-04-30T17:13:08.667Z,27.32
2018-04-30T17:15:37.080Z,27.41
2018-04-30T17:18:05.828Z,27.49
2018-04-30T17:20:34.217Z,27.53
2018-04-30T17:23:02.594Z,27.70
2018-04-30T17:25:31.255Z,27.71
2018-04-30T17:27:59.727Z,27.81
2018-04-30T17:30:28.192Z,27.91
2018-04-30T17:32:56.676Z,27.79
2018-04-30T17:35:25.982Z,28.05
2018-04-30T17:37:54.372Z,28.15
2018-04-30T17:40:22.761Z,28.30
2018-04-30T17:42:51.210Z,28.59
2018-04-30T17:45:19.753Z,28.65
2018-04-30T17:47:48.163Z,28.72
2018-04-30T17:50:17.424Z,28.92
2018-04-30T17:52:46.431Z,29.17
2018-04-30T17:55:14.864Z,29.26
2018-04-30T17:57:43.260Z,29.46
2018-04-30T18:00:11.794Z,29.68
2018-04-30T18:02:40.547Z,29.96
2018-04-30T18:05:09.038Z,29.98
2018-04-30T18:07:37.421Z,30.27
2018-04-30T18:10:06.852Z,30.21
2018-04-30T18:12:35.270Z,30.33
2018-04-30T18:15:03.663Z,30.36
2018-04-30T18:17:32.063Z,30.33
2018-04-30T18:20:00.457Z,30.16
2018-04-30T18:22:28.891Z,30.21
2018-04-30T18:24:57.992Z,29.79
2018-04-30T18:27:26.370Z,30.09
2018-04-30T18:29:54.747Z,29.86
2018-04-30T18:32:23.147Z,30.00
2018-04-30T18:34:51.581Z,30.04
2018-04-30T18:37:20.125Z,30.09
2018-04-30T18:39:48.504Z,30.31
2018-04-30T18:42:16.873Z,30.44
2018-04-30T18:44:45.265Z,30.21
2018-04-30T18:47:13.649Z,30.14
2018-04-30T18:49:42.013Z,30.19
2018-04-30T18:52:10.430Z,30.15
2018-04-30T18:54:38.941Z,30.23
2018-04-30T18:57:07.321Z,29.94
2018-04-30T18:59:35.697Z,29.84
2018-04-30T19:02:04.086Z,29.98
2018-04-30T19:04:32.478Z,30.13
2018-04-30T19:07:00.860Z,29.97
2018-04-30T19:09:29.745Z,30.00
2018-04-30T19:11:58.145Z,30.10
2018-04-30T19:14:26.669Z,30.09
2018-04-30T19:16:55.262Z,30.23
2018-04-30T19:19:23.660Z,30.15
2018-04-30T19:21:52.082Z,30.25
2018-04-30T19:24:20.558Z,30.55
2018-04-30T19:26:48.925Z,30.64
2018-04-30T19:29:17.314Z,30.78
2018-04-30T19:31:45.785Z,31.04
2018-04-30T19:34:14.358Z,31.07
2018-04-30T19:36:42.746Z,31.31
2018-04-30T19:39:11.105Z,31.31
2018-04-30T19:41:39.483Z,31.71
2018-04-30T19:44:07.902Z,31.98
2018-04-30T19:46:36.284Z,32.12
2018-04-30T19:49:04.417Z,32.34
2018-04-30T19:51:32.802Z,32.56
2018-04-30T19:54:01.205Z,32.72
2018-04-30T19:56:29.585Z,32.98
2018-04-30T19:58:57.969Z,32.58
2018-04-30T20:01:26.358Z,32.88
2018-04-30T20:03:54.719Z,33.13
2018-04-30T20:06:25.424Z,32.87
2018-04-30T20:08:53.937Z,33.05
2018-04-30T20:11:22.493Z,32.86
2018-04-30T20:13:50.934Z,32.67
2018-04-30T20:16:19.409Z,32.75
2018-04-30T20:18:47.813Z,32.22
2018-04-30T20:21:16.489Z,32.30
2018-04-30T20:23:45.164Z,32.43
2018-04-30T20:26:13.756Z,32.71
2018-04-30T20:28:42.140Z,32.96
2018-04-30T20:31:10.530Z,33.28
2018-04-30T20:33:39.235Z,33.48
2018-04-30T20:36:07.626Z,33.73
2018-04-30T20:38:36.012Z,33.83
2018-04-30T20:41:04.294Z,33.93
2018-04-30T20:43:32.769Z,34.00
2018-04-30T20:46:01.463Z,34.07
2018-04-30T20:48:29.981Z,34.23
2018-04-30T20:50:58.383Z,34.68
2018-04-30T20:53:26.753Z,34.72
2018-04-30T20:55:56.141Z,35.25
2018-04-30T20:58:24.545Z,35.46
2018-04-30T21:00:52.938Z,35.76
2018-04-30T21:03:21.322Z,36.12
2018-04-30T21:05:49.686Z,36.47
2018-04-30T21:08:18.326Z,36.59
2018-04-30T21:10:46.732Z,36.62
2018-04-30T21:13:15.112Z,36.90
2018-04-30T21:15:43.256Z,37.22
2018-04-30T21:18:12.386Z,37.30
2018-04-30T21:20:40.767Z,37.72
2018-04-30T21:23:09.135Z,38.15
2018-04-30T21:25:37.619Z,39.04
2018-04-30T21:28:06.102Z,39.46
2018-04-30T21:30:34.487Z,39.91
2018-04-30T21:33:03.162Z,40.22
2018-04-30T21:35:31.537Z,41.50
2018-04-30T21:37:59.901Z,41.33
2018-04-30T21:40:28.294Z,41.83
2018-04-30T21:42:56.659Z,42.21
2018-04-30T21:45:24.457Z,42.59
2018-04-30T21:47:52.835Z,42.76
2018-04-30T21:50:21.225Z,42.75
2018-04-30T21:52:49.600Z,43.35
2018-04-30T21:55:18.162Z,44.13
2018-04-30T21:57:46.540Z,44.68
2018-04-30T22:00:14.685Z,44.93
2018-04-30T22:02:42.873Z,45.17
2018-04-30T22:05:16.554Z,45.13
2018-04-30T22:07:44.932Z,45.05
2018-04-30T22:10:13.309Z,45.07
2018-04-30T22:12:41.693Z,44.95
2018-04-30T22:15:10.072Z,44.76
2018-04-30T22:17:38.452Z,44.69
2018-04-30T22:20:09.988Z,44.51
2018-04-30T22:22:38.369Z,44.61
2018-04-30T22:25:12.657Z,44.90
2018-04-30T22:27:41.660Z,45.31
2018-04-30T22:30:10.120Z,45.53
2018-04-30T22:32:38.638Z,45.61
2018-04-30T22:35:12.569Z,46.08
2018-04-30T22:37:40.939Z,46.43
2018-04-30T22:40:12.114Z,46.67
2018-04-30T22:42:40.501Z,46.76
2018-04-30T22:45:08.878Z,46.75
2018-04-30T22:47:37.274Z,46.63
2018-04-30T22:50:06.658Z,46.35
2018-04-30T22:52:35.173Z,46.14
2018-04-30T22:55:03.556Z,46.35
2018-04-30T22:57:31.687Z,46.10
2018-04-30T23:00:00.067Z,46.48
2018-04-30T23:02:28.448Z,46.62
2018-04-30T23:04:56.883Z,46.44
2018-04-30T23:07:25.269Z,46.45
2018-04-30T23:09:53.786Z,46.45
2018-04-30T23:12:22.175Z,46.68
2018-04-30T23:14:50.544Z,46.91
2018-04-30T23:17:18.940Z,46.92
2018-04-30T23:19:47.332Z,46.94
2018-04-30T23:22:15.163Z,46.90
2018-04-30T23:24:43.532Z,46.83
2018-04-30T23:27:11.917Z,46.77
2018-04-30T23:29:40.336Z,46.79
2018-04-30T23:32:08.777Z,46.89
2018-04-30T23:34:37.155Z,46.73
2018-04-30T23:37:05.838Z,46.66
2018-04-30T23:39:34.345Z,46.64
2018-04-30T23:42:02.729Z,46.49
2018-04-30T23:44:31.097Z,46.48
2018-04-30T23:46:59.480Z,46.54
2018-04-30T23:49:27.865Z,46.66
2018-04-30T23:51:56.237Z,46.96
2018-04-30T23:54:24.628Z,47.06
2018-04-30T23:56:52.999Z,47.13
2018-04-30T23:59:21.381Z,47.04
